createdAt,value
2019-03-04T00:00:12.185Z,89.17
2019-03-04T00:02:46.981Z,92.07
2019-03-04T00:05:23.254Z,88.27
2019-03-04T00:07:57.602Z,83.23
2019-03-04T00:10:31.615Z,82.73
2019-03-04T00:13:05.697Z,88.87
2019-03-04T00:15:41.402Z,77.83
2019-03-04T00:18:16.085Z,85.73
2019-03-04T00:20:48.117Z,87.57
2019-03-04T00:23:27.920Z,85.60
2019-03-04T00:26:01.167Z,73.40
2019-03-04T00:28:34.113Z,74.77
2019-03-04T00:31:07.092Z,76.43
2019-03-04T00:33:46.831Z,77.63
2019-03-04T00:36:26.680Z,79.00
2019-03-04T00:39:09.125Z,75.80
2019-03-04T00:41:50.674Z,78.90
2019-03-04T00:44:27.568Z,75.07
2019-03-04T00:47:03.710Z,76.77
2019-03-04T00:49:49.848Z,72.50
2019-03-04T00:52:30.560Z,78.83
2019-03-04T00:55:03.374Z,74.83
2019-03-04T00:57:41.144Z,82.53
2019-03-04T01:00:17.853Z,74.90
2019-03-04T01:02:50.736Z,78.10
2019-03-04T01:05:28.478Z,75.97
2019-03-04T01:08:02.640Z,87.80
2019-03-04T01:10:36.305Z,79.70
2019-03-04T01:13:13.847Z,73.50
2019-03-04T01:15:49.866Z,71.83
2019-03-04T01:18:21.831Z,86.60
2019-03-04T01:21:03.033Z,77.10
2019-03-04T01:23:44.304Z,78.67
2019-03-04T01:26:20.471Z,76.43
2019-03-04T01:28:59.474Z,77.33
2019-03-04T01:31:40.206Z,76.03
2019-03-04T01:34:18.918Z,82.57
2019-03-04T01:36:57.272Z,72.43
2019-03-04T01:39:29.353Z,70.33
2019-03-04T01:42:00.724Z,79.73
2019-03-04T01:44:39.946Z,75.33
2019-03-04T01:47:14.882Z,72.50
2019-03-04T01:49:46.503Z,72.47
2019-03-04T01:52:21.802Z,67.43
2019-03-04T01:54:53.910Z,73.63
2019-03-04T01:57:27.371Z,67.90
2019-03-04T02:00:01.188Z,64.57
2019-03-04T02:02:35.645Z,74.50
2019-03-04T02:05:09.202Z,69.93
2019-03-04T02:07:44.430Z,73.80
2019-03-04T02:10:26.621Z,68.23
2019-03-04T02:13:02.060Z,64.87
2019-03-04T02:15:34.822Z,62.67
2019-03-04T02:18:18.767Z,70.10
2019-03-04T02:20:55.292Z,58.30
2019-03-04T02:23:32.384Z,68.30
2019-03-04T02:26:15.201Z,62.83
2019-03-04T02:28:48.109Z,61.50
2019-03-04T02:31:24.657Z,68.07
2019-03-04T02:33:56.980Z,59.97
2019-03-04T02:36:30.832Z,66.03
2019-03-04T02:39:02.087Z,64.30
2019-03-04T02:41:41.306Z,62.37
2019-03-04T02:44:17.074Z,59.93
2019-03-04T02:46:54.147Z,55.87
2019-03-04T02:49:34.058Z,59.17
2019-03-04T02:52:12.728Z,56.93
2019-03-04T02:54:51.545Z,56.17
2019-03-04T02:57:33.642Z,57.57
2019-03-04T03:00:09.026Z,65.17
2019-03-04T03:02:47.329Z,54.93
2019-03-04T03:05:22.384Z,48.40
2019-03-04T03:08:05.494Z,51.00
2019-03-04T03:10:40.496Z,51.00
2019-03-04T03:13:20.682Z,46.23
2019-03-04T03:16:03.641Z,47.43
2019-03-04T03:18:43.636Z,54.77
2019-03-04T03:21:21.782Z,47.00
2019-03-04T03:23:59.171Z,49.37
2019-03-04T03:26:33.380Z,45.50
2019-03-04T03:29:07.539Z,46.30
2019-03-04T03:31:41.367Z,52.33
2019-03-04T03:34:13.238Z,45.33
2019-03-04T03:36:44.460Z,41.27
2019-03-04T03:39:17.277Z,41.30
2019-03-04T03:41:50.543Z,47.80
2019-03-04T03:44:24.492Z,45.27
2019-03-04T03:46:57.446Z,47.53
2019-03-04T03:49:31.340Z,42.73
2019-03-04T03:52:06.114Z,49.03
2019-03-04T03:54:39.607Z,50.23
2019-03-04T03:57:14.428Z,47.40
2019-03-04T03:59:51.232Z,42.40
2019-03-04T04:02:25.371Z,39.03
2019-03-04T04:04:59.631Z,40.83
2019-03-04T04:07:34.286Z,45.93
2019-03-04T04:10:07.735Z,44.50
2019-03-04T04:12:43.967Z,39.77
2019-03-04T04:15:19.901Z,41.87
2019-03-04T04:17:53.614Z,44.97
2019-03-04T04:20:27.721Z,34.53
2019-03-04T04:23:01.397Z,40.77
2019-03-04T04:25:34.338Z,39.50
2019-03-04T04:28:09.844Z,39.43
2019-03-04T04:30:42.769Z,33.80
2019-03-04T04:33:17.786Z,36.60
2019-03-04T04:35:52.841Z,35.17
2019-03-04T04:38:28.981Z,36.83
2019-03-04T04:41:06.053Z,35.90
2019-03-04T04:43:40.561Z,35.73
2019-03-04T04:46:18.049Z,31.00
2019-03-04T04:48:52.514Z,32.63
2019-03-04T04:51:27.127Z,35.87
2019-03-04T04:54:00.740Z,40.83
2019-03-04T04:56:35.577Z,42.27
2019-03-04T04:59:09.186Z,36.77
2019-03-04T05:01:42.673Z,33.00
2019-03-04T05:04:14.834Z,29.40
2019-03-04T05:06:48.300Z,33.30
2019-03-04T05:09:23.728Z,35.30
2019-03-04T05:11:59.715Z,28.47
2019-03-04T05:14:32.971Z,29.93
2019-03-04T05:17:05.550Z,31.80
2019-03-04T05:19:42.128Z,28.43
2019-03-04T05:22:14.757Z,28.00
2019-03-04T05:24:46.879Z,31.87
2019-03-04T05:27:18.368Z,35.50
2019-03-04T05:29:50.069Z,42.90
2019-03-04T05:32:21.681Z,47.03
2019-03-04T05:34:52.527Z,45.77
2019-03-04T05:37:28.043Z,40.83
2019-03-04T05:40:00.345Z,36.97
2019-03-04T05:42:32.471Z,25.40
2019-03-04T05:45:04.290Z,25.83
2019-03-04T05:47:38.847Z,34.43
2019-03-04T05:50:13.227Z,33.90
2019-03-04T05:52:44.774Z,27.53
2019-03-04T05:55:18.185Z,35.63
2019-03-04T05:57:49.686Z,32.70
2019-03-04T06:00:22.437Z,25.33
2019-03-04T06:02:54.782Z,30.23
2019-03-04T06:05:32.097Z,30.17
2019-03-04T06:08:07.504Z,26.60
2019-03-04T06:10:40.441Z,24.90
2019-03-04T06:13:15.931Z,25.43
2019-03-04T06:15:47.416Z,25.70
2019-03-04T06:18:18.662Z,31.63
2019-03-04T06:20:50.875Z,24.63
2019-03-04T06:23:22.810Z,26.57
2019-03-04T06:25:55.597Z,20.43
2019-03-04T06:28:30.993Z,25.70
2019-03-04T06:31:03.675Z,21.30
2019-03-04T06:33:39.381Z,26.17
2019-03-04T06:36:11.306Z,28.60
2019-03-04T06:38:44.782Z,25.70
2019-03-04T06:41:20.250Z,21.93
2019-03-04T06:43:53.384Z,28.73
2019-03-04T06:46:28.083Z,26.57
2019-03-04T06:49:01.643Z,23.73
2019-03-04T06:51:49.694Z,22.73
2019-03-04T06:55:00.325Z,21.47
2019-03-04T06:57:39.386Z,21.67
2019-03-04T07:01:03.283Z,25.37
2019-03-04T07:03:42.995Z,28.73
2019-03-04T07:06:18.674Z,26.97
2019-03-04T07:09:15.001Z,25.10
2019-03-04T07:11:51.554Z,27.20
2019-03-04T07:14:27.149Z,23.67
2019-03-04T07:17:00.042Z,24.57
2019-03-04T07:19:39.378Z,25.33
2019-03-04T07:22:12.765Z,22.83
2019-03-04T07:24:47.224Z,21.23
2019-03-04T07:27:21.869Z,27.97
2019-03-04T07:29:57.311Z,24.97
2019-03-04T07:32:35.233Z,24.30
2019-03-04T07:35:07.808Z,16.27
2019-03-04T07:37:48.053Z,21.80
2019-03-04T07:40:27.787Z,18.17
2019-03-04T07:43:07.029Z,19.57
2019-03-04T07:45:42.697Z,17.10
2019-03-04T07:48:16.950Z,22.33
2019-03-04T07:50:56.730Z,21.13
2019-03-04T07:53:29.374Z,21.70
2019-03-04T07:56:02.363Z,29.50
2019-03-04T07:58:35.378Z,28.83
2019-03-04T08:01:07.474Z,23.37
2019-03-04T08:03:41.430Z,28.57
2019-03-04T08:06:14.420Z,30.50
2019-03-04T08:09:23.897Z,18.67
2019-03-04T08:12:43.343Z,19.20
2019-03-04T08:15:19.617Z,19.30
2019-03-04T08:17:58.455Z,14.80
2019-03-04T08:20:36.457Z,16.00
2019-03-04T08:23:11.450Z,15.70
2019-03-04T08:25:44.838Z,17.97
2019-03-04T08:28:18.354Z,18.60
2019-03-04T08:30:52.378Z,18.70
2019-03-04T08:33:24.575Z,15.63
2019-03-04T08:36:07.447Z,14.57
2019-03-04T08:38:46.771Z,16.87
2019-03-04T08:41:24.115Z,15.13
2019-03-04T08:44:00.346Z,14.43
2019-03-04T08:46:43.793Z,16.93
2019-03-04T08:49:20.975Z,13.23
2019-03-04T08:51:57.365Z,18.50
2019-03-04T08:54:32.856Z,10.40
2019-03-04T08:57:04.350Z,9.43
2019-03-04T08:59:37.161Z,12.70
2019-03-04T09:02:09.020Z,14.30
2019-03-04T09:04:43.347Z,15.30
2019-03-04T09:07:15.075Z,12.17
2019-03-04T09:09:48.924Z,11.10
2019-03-04T09:12:29.157Z,11.77
2019-03-04T09:15:02.491Z,12.67
2019-03-04T09:17:35.834Z,12.77
2019-03-04T09:20:11.244Z,8.23
2019-03-04T09:22:47.165Z,10.27
2019-03-04T09:25:30.356Z,14.77
2019-03-04T09:27:59.037Z,10.60
2019-03-04T09:30:33.459Z,9.83
2019-03-04T09:33:08.357Z,7.27
2019-03-04T09:35:40.841Z,12.23
2019-03-04T09:38:15.294Z,8.53
2019-03-04T09:40:46.386Z,12.40
2019-03-04T09:43:18.059Z,7.93
2019-03-04T09:45:49.195Z,7.87
2019-03-04T09:48:21.480Z,11.57
2019-03-04T09:50:52.748Z,7.43
2019-03-04T09:53:23.925Z,10.10
2019-03-04T09:55:58.756Z,11.43
2019-03-04T09:58:30.587Z,11.63
2019-03-04T10:01:43.245Z,10.57
2019-03-04T10:04:58.485Z,12.83
2019-03-04T10:07:47.510Z,10.53
2019-03-04T10:11:01.388Z,9.70
2019-03-04T10:14:02.801Z,11.60
2019-03-04T10:17:10.603Z,11.97
2019-03-04T10:20:23.340Z,11.63
2019-03-04T10:23:40.513Z,10.63
2019-03-04T10:26:46.538Z,14.10
2019-03-04T10:29:49.765Z,22.10
2019-03-04T10:33:28.035Z,13.77
2019-03-04T10:36:18.887Z,18.30
2019-03-04T10:39:43.141Z,14.33
2019-03-04T10:42:54.070Z,11.03
2019-03-04T10:45:41.884Z,10.80
2019-03-04T10:48:15.819Z,12.30
2019-03-04T10:50:49.534Z,13.33
2019-03-04T10:53:23.445Z,13.83
2019-03-04T10:55:55.457Z,13.83
2019-03-04T10:58:29.796Z,15.27
2019-03-04T11:01:02.890Z,11.30
2019-03-04T11:03:36.515Z,10.40
2019-03-04T11:06:12.833Z,14.03
2019-03-04T11:08:47.366Z,14.73
2019-03-04T11:11:29.809Z,19.27
2019-03-04T11:14:01.193Z,14.03
2019-03-04T11:16:35.316Z,10.80
2019-03-04T11:19:07.153Z,11.70
2019-03-04T11:21:42.219Z,11.57
2019-03-04T11:24:15.026Z,11.20
2019-03-04T11:26:53.084Z,14.00
2019-03-04T11:29:26.755Z,10.80
2019-03-04T11:32:00.085Z,13.47
2019-03-04T11:34:33.155Z,8.43
2019-03-04T11:37:03.846Z,9.63
2019-03-04T11:40:04.306Z,10.23
2019-03-04T11:42:36.539Z,11.67
2019-03-04T11:45:16.498Z,6.90
2019-03-04T11:47:59.167Z,6.07
2019-03-04T11:50:37.036Z,7.93
2019-03-04T11:53:15.337Z,9.90
2019-03-04T11:55:49.713Z,8.20
2019-03-04T11:58:23.144Z,9.30
2019-03-04T12:01:03.867Z,8.07
2019-03-04T12:03:37.548Z,9.30
2019-03-04T12:06:13.986Z,9.57
2019-03-04T12:08:50.019Z,6.97
2019-03-04T12:11:37.670Z,9.23
2019-03-04T12:14:15.568Z,7.93
2019-03-04T12:16:55.103Z,9.67
2019-03-04T12:19:28.814Z,6.77
2019-03-04T12:22:08.877Z,9.00
2019-03-04T12:24:41.459Z,8.80
2019-03-04T12:27:14.701Z,7.93
2019-03-04T12:29:49.180Z,7.23
2019-03-04T12:32:26.330Z,8.43
2019-03-04T12:35:00.476Z,10.67
2019-03-04T12:37:39.102Z,10.13
2019-03-04T12:40:16.470Z,10.23
2019-03-04T12:51:35.772Z,10.57
2019-03-04T12:54:14.035Z,11.37
2019-03-04T12:56:51.112Z,15.33
2019-03-04T12:59:22.918Z,13.87
2019-03-04T13:01:57.127Z,13.90
2019-03-04T13:04:33.257Z,10.43
2019-03-04T13:07:08.959Z,8.17
2019-03-04T13:09:41.468Z,8.00
2019-03-04T13:12:13.706Z,9.83
2019-03-04T13:14:47.057Z,13.70
2019-03-04T13:17:20.922Z,12.50
2019-03-04T13:19:56.159Z,11.90
2019-03-04T13:22:28.862Z,8.07
2019-03-04T13:25:01.743Z,10.70
2019-03-04T13:27:35.753Z,15.90
2019-03-04T13:30:16.284Z,13.67
2019-03-04T13:32:52.732Z,9.10
2019-03-04T13:35:27.015Z,9.77
2019-03-04T13:38:02.829Z,10.80
2019-03-04T13:40:36.402Z,7.37
2019-03-04T13:43:11.109Z,13.93
2019-03-04T13:45:48.370Z,12.53
2019-03-04T13:48:23.774Z,10.00
2019-03-04T13:50:58.038Z,8.17
2019-03-04T13:53:34.084Z,13.43
2019-03-04T13:56:06.352Z,21.73
2019-03-04T13:58:48.942Z,20.40
2019-03-04T14:01:27.615Z,16.90
2019-03-04T14:04:01.217Z,18.90
2019-03-04T14:06:34.388Z,20.40
2019-03-04T14:09:07.568Z,28.30
2019-03-04T14:11:42.658Z,7.63
2019-03-04T14:14:16.136Z,23.23
2019-03-04T14:16:48.790Z,16.63
2019-03-04T14:19:27.060Z,15.03
2019-03-04T14:22:00.478Z,14.57
2019-03-04T14:24:32.150Z,15.13
2019-03-04T14:27:03.927Z,8.70
2019-03-04T14:29:43.979Z,12.17
2019-03-04T14:32:16.946Z,14.50
2019-03-04T14:34:47.419Z,17.67
2019-03-04T14:37:18.117Z,22.53
2019-03-04T14:39:49.282Z,13.13
2019-03-04T14:42:20.698Z,12.80
2019-03-04T14:44:51.637Z,17.20
2019-03-04T14:47:23.097Z,8.87
2019-03-04T14:49:54.398Z,14.07
2019-03-04T14:52:24.767Z,18.90
2019-03-04T14:54:55.641Z,17.10
2019-03-04T14:57:30.970Z,8.30
2019-03-04T15:00:03.478Z,16.43
2019-03-04T15:02:35.581Z,12.50
2019-03-04T15:05:09.058Z,18.50
2019-03-04T15:07:41.467Z,16.17
2019-03-04T15:10:13.872Z,9.80
2019-03-04T15:12:46.347Z,11.00
2019-03-04T15:15:19.461Z,15.23
2019-03-04T15:17:52.251Z,13.10
2019-03-04T15:20:24.719Z,9.70
2019-03-04T15:22:56.251Z,12.47
2019-03-04T15:25:30.520Z,12.67
2019-03-04T15:28:15.400Z,11.97
2019-03-04T15:30:47.320Z,9.77
2019-03-04T15:33:18.888Z,13.40
2019-03-04T15:35:49.995Z,14.83
2019-03-04T15:38:20.667Z,13.03
2019-03-04T15:40:51.243Z,11.83
2019-03-04T15:43:24.031Z,10.80
2019-03-04T15:45:55.202Z,10.83
2019-03-04T15:48:28.636Z,11.37
2019-03-04T15:51:00.620Z,12.70
2019-03-04T15:53:33.682Z,13.67
2019-03-04T15:56:06.983Z,13.67
2019-03-04T15:58:38.618Z,13.03
2019-03-04T16:01:13.207Z,12.30
2019-03-04T16:03:48.186Z,18.97
2019-03-04T16:06:22.669Z,13.53
2019-03-04T16:08:57.273Z,10.53
2019-03-04T16:11:31.833Z,12.57
2019-03-04T16:14:03.084Z,15.33
2019-03-04T16:16:35.714Z,15.43
2019-03-04T16:19:09.604Z,18.73
2019-03-04T16:21:41.311Z,17.37
2019-03-04T16:24:15.049Z,21.27
2019-03-04T16:26:47.907Z,25.07
2019-03-04T16:29:19.028Z,20.07
2019-03-04T16:31:50.545Z,19.53
2019-03-04T16:34:22.909Z,20.47
2019-03-04T16:36:57.060Z,24.73
2019-03-04T16:39:30.001Z,22.17
2019-03-04T16:42:01.498Z,26.53
2019-03-04T16:44:32.431Z,21.73
2019-03-04T16:47:03.140Z,22.20
2019-03-04T16:49:33.438Z,16.70
2019-03-04T16:52:06.975Z,23.13
2019-03-04T16:54:37.651Z,20.70
2019-03-04T16:57:13.020Z,22.53
2019-03-04T16:59:43.413Z,21.27
2019-03-04T17:02:14.464Z,27.83
2019-03-04T17:04:45.385Z,25.57
2019-03-04T17:07:16.048Z,19.27
2019-03-04T17:09:46.573Z,15.03
2019-03-04T17:12:17.552Z,17.17
2019-03-04T17:14:48.890Z,15.80
2019-03-04T17:17:19.680Z,13.70
2019-03-04T17:19:50.328Z,16.50
2019-03-04T17:22:21.169Z,18.47
2019-03-04T17:24:52.474Z,18.17
2019-03-04T17:27:23.042Z,24.67
2019-03-04T17:29:54.023Z,20.77
2019-03-04T17:32:24.391Z,17.13
2019-03-04T17:34:55.351Z,17.40
2019-03-04T17:37:25.939Z,14.23
2019-03-04T17:39:56.845Z,17.53
2019-03-04T17:42:27.779Z,15.13
2019-03-04T17:44:58.521Z,21.37
2019-03-04T17:47:29.089Z,22.27
2019-03-04T17:49:59.590Z,37.00
2019-03-04T17:52:31.138Z,25.60
2019-03-04T17:55:02.164Z,22.23
2019-03-04T17:57:33.447Z,25.17
2019-03-04T18:00:04.106Z,23.07
2019-03-04T18:02:35.123Z,18.07
2019-03-04T18:05:06.464Z,14.83
2019-03-04T18:07:38.122Z,17.90
2019-03-04T18:10:11.490Z,17.47
2019-03-04T18:12:41.974Z,17.63
2019-03-04T18:15:16.487Z,13.37
2019-03-04T18:17:47.882Z,16.90
2019-03-04T18:20:21.330Z,20.20
2019-03-04T18:22:52.747Z,15.20
2019-03-04T18:25:44.730Z,17.33
2019-03-04T18:28:19.906Z,14.60
2019-03-04T18:31:15.082Z,12.73
2019-03-04T18:34:18.545Z,14.47
2019-03-04T18:37:29.056Z,15.43
2019-03-04T18:40:39.815Z,17.43
2019-03-04T18:43:34.371Z,15.03
2019-03-04T18:47:04.266Z,24.77
2019-03-04T18:49:35.044Z,15.40
2019-03-04T18:52:05.557Z,14.40
2019-03-04T18:54:37.470Z,14.63
2019-03-04T18:57:08.265Z,13.33
2019-03-04T18:59:38.857Z,15.47
2019-03-04T19:02:09.483Z,14.43
2019-03-04T19:04:40.341Z,17.53
2019-03-04T19:07:10.920Z,15.50
2019-03-04T19:09:41.664Z,17.70
2019-03-04T19:12:12.286Z,12.83
2019-03-04T19:14:42.682Z,12.90
2019-03-04T19:17:13.238Z,22.50
2019-03-04T19:19:43.947Z,15.60
2019-03-04T19:22:14.945Z,16.17
2019-03-04T19:24:45.624Z,11.20
2019-03-04T19:27:16.179Z,16.17
2019-03-04T19:29:48.792Z,12.90
2019-03-04T19:32:21.684Z,16.47
2019-03-04T19:34:53.376Z,11.93
2019-03-04T19:37:27.512Z,12.63
2019-03-04T19:39:58.344Z,17.83
2019-03-04T19:42:30.015Z,13.70
2019-03-04T19:45:01.713Z,14.27
2019-03-04T19:47:34.274Z,14.10
2019-03-04T19:50:06.006Z,11.77
2019-03-04T19:52:37.293Z,14.17
2019-03-04T19:55:09.388Z,12.63
2019-03-04T19:57:41.106Z,15.77
2019-03-04T20:00:14.859Z,13.00
2019-03-04T20:02:46.186Z,20.27
2019-03-04T20:05:21.846Z,14.40
2019-03-04T20:07:54.876Z,12.23
2019-03-04T20:10:27.393Z,12.03
2019-03-04T20:12:58.153Z,9.90
2019-03-04T20:15:29.758Z,13.43
2019-03-04T20:18:00.889Z,12.73
2019-03-04T20:20:31.799Z,9.13
2019-03-04T20:23:03.990Z,11.33
2019-03-04T20:25:34.702Z,11.83
2019-03-04T20:28:05.515Z,10.13
2019-03-04T20:30:36.185Z,11.00
2019-03-04T20:33:07.568Z,12.83
2019-03-04T20:35:39.120Z,11.40
2019-03-04T20:38:11.635Z,11.17
2019-03-04T20:40:42.799Z,8.80
2019-03-04T20:43:16.788Z,9.83
2019-03-04T20:45:49.614Z,8.00
2019-03-04T20:48:20.668Z,10.07
2019-03-04T20:50:51.939Z,12.33
2019-03-04T20:53:27.090Z,8.03
2019-03-04T20:56:00.498Z,13.67
2019-03-04T20:58:32.698Z,8.17
2019-03-04T21:01:05.453Z,8.27
2019-03-04T21:03:38.439Z,9.93
2019-03-04T21:06:10.230Z,10.37
2019-03-04T21:08:44.428Z,9.17
2019-03-04T21:11:17.196Z,15.63
2019-03-04T21:13:48.694Z,9.40
2019-03-04T21:16:20.704Z,13.57
2019-03-04T21:18:53.027Z,11.67
2019-03-04T21:21:23.565Z,15.97
2019-03-04T21:23:54.625Z,10.53
2019-03-04T21:26:41.080Z,10.37
2019-03-04T21:29:45.141Z,8.73
2019-03-04T21:33:01.398Z,10.93
2019-03-04T21:35:57.049Z,8.87
2019-03-04T21:38:31.728Z,14.03
2019-03-04T21:41:26.689Z,9.93
2019-03-04T21:44:48.418Z,10.10
2019-03-04T21:47:34.219Z,8.97
2019-03-04T21:50:08.398Z,10.27
2019-03-04T21:53:16.215Z,10.67
2019-03-04T21:56:33.743Z,12.90
2019-03-04T21:59:06.907Z,9.87
2019-03-04T22:01:48.674Z,11.70
2019-03-04T22:04:22.747Z,9.23
2019-03-04T22:06:55.150Z,8.77
2019-03-04T22:09:35.158Z,9.17
2019-03-04T22:12:16.831Z,6.27
2019-03-04T22:14:48.007Z,6.37
2019-03-04T22:17:20.304Z,6.40
2019-03-04T22:19:52.090Z,7.43
2019-03-04T22:22:24.670Z,5.43
2019-03-04T22:24:56.940Z,10.87
2019-03-04T22:27:27.957Z,9.87
2019-03-04T22:30:00.449Z,5.60
2019-03-04T22:32:32.911Z,8.47
2019-03-04T22:35:04.935Z,7.57
2019-03-04T22:37:37.882Z,6.30
2019-03-04T22:40:13.148Z,6.17
2019-03-04T22:42:46.958Z,8.83
2019-03-04T22:45:18.968Z,9.60
2019-03-04T22:47:50.738Z,11.03
2019-03-04T22:50:22.209Z,4.83
2019-03-04T22:52:53.114Z,9.07
2019-03-04T22:55:30.630Z,7.87
2019-03-04T22:58:06.745Z,8.83
2019-03-04T23:01:39.200Z,10.67
2019-03-04T23:04:17.338Z,7.33
2019-03-04T23:07:13.868Z,8.63
2019-03-04T23:10:21.820Z,6.47
2019-03-04T23:12:59.911Z,9.47
2019-03-04T23:15:35.732Z,9.13
2019-03-04T23:18:06.812Z,6.53
2019-03-04T23:20:39.083Z,8.93
2019-03-04T23:23:10.974Z,5.90
2019-03-04T23:25:46.318Z,7.33
2019-03-04T23:28:26.470Z,4.93
2019-03-04T23:31:03.203Z,10.93
2019-03-04T23:33:39.234Z,4.97
2019-03-04T23:36:12.739Z,7.97
2019-03-04T23:38:44.864Z,10.00
2019-03-04T23:41:20.557Z,7.13
2019-03-04T23:43:58.103Z,4.10
2019-03-04T23:46:32.165Z,5.30
2019-03-04T23:49:07.569Z,3.00
2019-03-04T23:51:41.002Z,3.83
2019-03-04T23:54:17.473Z,3.23
2019-03-04T23:56:50.818Z,4.83
2019-03-04T23:59:24.505Z,1.63
